Twin Oaks, Missouri
Current Conditions -  °F | °C
As of 9:54 PM on Tuesday 27 Jan 2015 (Local Time) from KSUS Reporting Station
Clear Clear  
Wind Chill: 25°   Ceiling: Unl
Heat Index: 30°   Visibility: 7mi
Dew Point: 26°   Wind: 5mph
Humidity: 85%   Direction: 80°E
Pressure: 30.24"   Gusts: NA
Location:  38.5691°N, 90.5462°W
Report Text: KSUS 280354Z 08004KT 7SM CLR M01/M03 A3024 RMK AO2 SLP246 T10111033
Loading
Personal Weather Stations






























Interactive Weather Map New forecast layout! Learn more

10-Day Weather Forecast

Advertisements
Track Severe Weather on mobile